Warriors Mark, Pennsylvania
Current Conditions -  °F | °C
As of 2:53 PM on Tuesday 25 Nov 2014 (Local Time) from KUNV Reporting Station
Few Clouds Few Clouds  
Wind Chill: 43°   Ceiling: Unl
Heat Index: 48°   Visibility: 10mi
Dew Point: 28°   Wind: 14mph
Humidity: 46%   Direction: 250°WSW
Pressure: 30"   Gusts: 23mph
Location:  40.7°N, 78.13°W
Report Text: KUNV 251953Z 25012G20KT 10SM FEW040 09/M02 A3000
Loading
Personal Weather Stations






























Interactive Weather Map New forecast layout! Learn more

10-Day Weather Forecast

Advertisements
Track Severe Weather on mobile